createdAt,value
2023-05-05T00:00:34.749Z,1249.00
2023-05-05T00:01:34.788Z,1251.00
2023-05-05T00:02:34.929Z,1247.00
2023-05-05T00:03:34.980Z,1247.00
2023-05-05T00:04:34.872Z,1252.00
2023-05-05T00:05:34.990Z,1266.00
2023-05-05T00:06:35.027Z,1259.00
2023-05-05T00:07:35.010Z,1246.00
2023-05-05T00:08:35.058Z,1264.00
2023-05-05T00:09:35.112Z,1249.00
2023-05-05T00:10:35.150Z,1250.00
2023-05-05T00:11:35.189Z,1248.00
2023-05-05T00:12:35.240Z,1255.00
2023-05-05T00:13:35.254Z,1247.00
2023-05-05T00:14:35.321Z,1258.00
2023-05-05T00:15:35.363Z,1252.00
2023-05-05T00:16:35.411Z,1262.00
2023-05-05T00:17:35.509Z,1252.00
2023-05-05T00:18:35.487Z,1259.00
2023-05-05T00:19:35.541Z,1234.00
2023-05-05T00:20:35.560Z,1249.00
2023-05-05T00:21:35.572Z,1242.00
2023-05-05T00:22:35.660Z,1239.00
2023-05-05T00:23:35.683Z,1250.00
2023-05-05T00:24:35.725Z,1233.00
2023-05-05T00:25:35.760Z,1251.00
2023-05-05T00:26:35.784Z,1239.00
2023-05-05T00:27:35.887Z,1247.00
2023-05-05T00:28:35.894Z,1243.00
2023-05-05T00:29:35.972Z,1249.00
2023-05-05T00:30:36.015Z,1260.00
2023-05-05T00:31:36.084Z,1249.00
2023-05-05T00:32:36.110Z,1236.00
2023-05-05T00:33:36.105Z,1234.00
2023-05-05T00:34:36.168Z,1245.00
2023-05-05T00:35:36.249Z,1237.00
2023-05-05T00:36:36.290Z,1238.00
2023-05-05T00:37:36.310Z,1236.00
2023-05-05T00:38:36.356Z,1236.00
2023-05-05T00:39:36.385Z,1241.00
2023-05-05T00:40:36.459Z,1231.00
2023-05-05T00:41:36.495Z,1250.00
2023-05-05T00:42:36.532Z,1233.00
2023-05-05T00:43:36.565Z,1230.00
2023-05-05T00:44:36.595Z,1237.00
2023-05-05T00:45:36.687Z,1243.00
2023-05-05T00:46:36.740Z,1229.00
2023-05-05T00:47:36.772Z,1252.00
2023-05-05T00:48:36.794Z,1228.00
2023-05-05T00:49:36.876Z,1224.00
2023-05-05T00:50:36.888Z,1227.00
2023-05-05T00:51:36.930Z,1234.00
2023-05-05T00:52:36.987Z,1227.00
2023-05-05T00:53:37.017Z,1230.00
2023-05-05T00:54:37.108Z,1222.00
2023-05-05T00:55:37.166Z,1241.00
2023-05-05T00:56:37.180Z,1223.00
2023-05-05T00:57:37.244Z,1221.00
2023-05-05T00:58:37.273Z,1235.00
2023-05-05T00:59:37.312Z,1226.00
2023-05-05T01:00:37.420Z,1226.00
2023-05-05T01:01:37.450Z,1220.00
2023-05-05T01:02:37.524Z,1209.00
2023-05-05T01:03:37.600Z,1224.00
2023-05-05T01:04:37.559Z,1242.00
2023-05-05T01:05:37.663Z,1235.00
2023-05-05T01:06:37.678Z,1223.00
2023-05-05T01:07:37.711Z,1231.00
2023-05-05T01:08:37.769Z,1219.00
2023-05-05T01:09:37.792Z,1231.00
2023-05-05T01:10:37.856Z,1220.00
2023-05-05T01:11:37.889Z,1225.00
2023-05-05T01:12:38.871Z,1215.00
2023-05-05T01:13:38.015Z,1218.00
2023-05-05T01:14:38.027Z,1219.00
2023-05-05T01:15:38.104Z,1215.00
2023-05-05T01:16:38.154Z,1213.00
2023-05-05T01:17:38.237Z,1212.00
2023-05-05T01:18:38.255Z,1218.00
2023-05-05T01:19:38.301Z,1219.00
2023-05-05T01:20:38.324Z,1220.00
2023-05-05T01:21:38.368Z,1215.00
2023-05-05T01:22:38.403Z,1213.00
2023-05-05T01:23:38.486Z,1214.00
2023-05-05T01:24:38.552Z,1208.00
2023-05-05T01:25:38.584Z,1203.00
2023-05-05T01:26:38.625Z,1195.00
2023-05-05T01:27:38.696Z,1225.00
2023-05-05T01:28:38.711Z,1210.00
2023-05-05T01:29:38.785Z,1215.00
2023-05-05T01:30:38.816Z,1215.00
2023-05-05T01:31:38.927Z,1219.00
2023-05-05T01:32:38.923Z,1211.00
2023-05-05T01:33:38.943Z,1221.00
2023-05-05T01:34:38.998Z,1212.00
2023-05-05T01:35:39.074Z,1216.00
2023-05-05T01:36:39.112Z,1213.00
2023-05-05T01:37:39.166Z,1218.00
2023-05-05T01:38:39.294Z,1197.00
2023-05-05T01:39:39.241Z,1214.00
2023-05-05T01:40:39.329Z,1206.00
2023-05-05T01:41:39.378Z,1220.00
2023-05-05T01:42:39.418Z,1232.00
2023-05-05T01:43:39.438Z,1216.00
2023-05-05T01:44:39.509Z,1218.00
2023-05-05T01:45:39.648Z,1234.00
2023-05-05T01:46:39.624Z,1222.00
2023-05-05T01:47:39.687Z,1214.00
2023-05-05T01:48:42.246Z,1206.00
2023-05-05T01:49:39.938Z,1207.00
2023-05-05T01:50:40.033Z,1215.00
2023-05-05T01:51:40.038Z,1223.00
2023-05-05T01:52:40.137Z,1214.00
2023-05-05T01:53:40.114Z,1207.00
2023-05-05T01:54:40.156Z,1225.00
2023-05-05T01:55:40.231Z,1212.00
2023-05-05T01:56:40.262Z,1205.00
2023-05-05T01:57:40.293Z,1208.00
2023-05-05T01:58:40.368Z,1216.00
2023-05-05T01:59:40.401Z,1222.00
2023-05-05T02:00:40.473Z,1217.00
2023-05-05T02:01:40.556Z,1215.00
2023-05-05T02:02:40.582Z,1213.00
2023-05-05T02:03:40.578Z,1215.00
2023-05-05T02:04:40.650Z,1200.00
2023-05-05T02:05:40.731Z,1215.00
2023-05-05T02:06:40.739Z,1206.00
2023-05-05T02:07:40.777Z,1213.00
2023-05-05T02:08:40.819Z,1227.00
2023-05-05T02:09:40.911Z,1216.00
2023-05-05T02:10:41.021Z,1206.00
2023-05-05T02:11:40.997Z,1215.00
2023-05-05T02:12:41.076Z,1213.00
2023-05-05T02:13:41.114Z,1219.00
2023-05-05T02:14:41.110Z,1210.00
2023-05-05T02:15:41.204Z,1205.00
2023-05-05T02:16:41.307Z,1209.00
2023-05-05T02:17:41.302Z,1200.00
2023-05-05T02:18:41.318Z,1213.00
2023-05-05T02:19:41.370Z,1223.00
2023-05-05T02:20:41.431Z,1225.00
2023-05-05T02:21:41.462Z,1209.00
2023-05-05T02:22:41.538Z,1211.00
2023-05-05T02:23:41.574Z,1215.00
2023-05-05T02:24:41.608Z,1205.00
2023-05-05T02:25:41.683Z,1220.00
2023-05-05T02:26:41.734Z,1214.00
2023-05-05T02:27:41.781Z,1219.00
2023-05-05T02:28:41.818Z,1219.00
2023-05-05T02:29:41.841Z,1223.00
2023-05-05T02:30:41.933Z,1219.00
2023-05-05T02:31:42.016Z,1220.00
2023-05-05T02:32:41.986Z,1204.00
2023-05-05T02:33:42.078Z,1233.00
2023-05-05T02:34:42.119Z,1212.00
2023-05-05T02:35:42.137Z,1210.00
2023-05-05T02:36:42.201Z,1216.00
2023-05-05T02:37:42.248Z,1216.00
2023-05-05T02:38:42.329Z,1219.00
2023-05-05T02:39:42.348Z,1203.00
2023-05-05T02:40:42.434Z,1214.00
2023-05-05T02:41:42.439Z,1221.00
2023-05-05T02:42:42.529Z,1209.00
2023-05-05T02:43:42.558Z,1224.00
2023-05-05T02:44:42.622Z,1213.00
2023-05-05T02:45:42.694Z,1199.00
2023-05-05T02:46:42.759Z,1221.00
2023-05-05T02:47:42.768Z,1214.00
2023-05-05T02:48:42.771Z,1209.00
2023-05-05T02:49:42.846Z,1216.00
2023-05-05T02:50:42.893Z,1205.00
2023-05-05T02:51:42.976Z,1202.00
2023-05-05T02:52:43.043Z,1224.00
2023-05-05T02:53:43.053Z,1212.00
2023-05-05T02:54:43.098Z,1212.00
2023-05-05T02:55:43.133Z,1211.00
2023-05-05T02:56:43.227Z,1225.00
2023-05-05T02:57:43.265Z,1213.00
2023-05-05T02:58:43.335Z,1214.00
2023-05-05T02:59:43.356Z,1232.00
2023-05-05T03:00:43.424Z,1218.00
2023-05-05T03:01:43.482Z,1203.00
2023-05-05T03:02:43.571Z,1193.00
2023-05-05T03:03:43.620Z,1222.00
2023-05-05T03:04:43.599Z,1215.00
2023-05-05T03:05:43.776Z,1192.00
2023-05-05T03:06:43.748Z,1219.00
2023-05-05T03:07:43.789Z,1213.00
2023-05-05T03:08:43.827Z,1214.00
2023-05-05T03:09:43.859Z,1212.00
2023-05-05T03:10:43.954Z,1210.00
2023-05-05T03:11:43.963Z,1215.00
2023-05-05T03:12:44.059Z,1219.00
2023-05-05T03:13:44.098Z,1214.00
2023-05-05T03:14:44.153Z,1215.00
2023-05-05T03:15:44.227Z,1207.00
2023-05-05T03:16:44.407Z,1205.00
2023-05-05T03:17:44.374Z,1219.00
2023-05-05T03:18:44.349Z,1207.00
2023-05-05T03:19:44.437Z,1202.00
2023-05-05T03:20:44.473Z,1211.00
2023-05-05T03:21:44.520Z,1220.00
2023-05-05T03:22:44.580Z,1214.00
2023-05-05T03:23:44.645Z,1207.00
2023-05-05T03:24:44.664Z,1217.00
2023-05-05T03:25:44.721Z,1203.00
2023-05-05T03:26:44.788Z,1208.00
2023-05-05T03:27:44.810Z,1214.00
2023-05-05T03:28:44.911Z,1220.00
2023-05-05T03:29:44.949Z,1198.00
2023-05-05T03:30:44.996Z,1211.00
2023-05-05T03:31:45.129Z,1205.00
2023-05-05T03:32:45.145Z,1213.00
2023-05-05T03:33:45.170Z,1211.00
2023-05-05T03:34:45.207Z,1217.00
2023-05-05T03:35:45.279Z,1199.00
2023-05-05T03:36:45.327Z,1208.00
2023-05-05T03:37:45.338Z,1212.00
2023-05-05T03:38:45.414Z,1222.00
2023-05-05T03:39:45.475Z,1209.00
2023-05-05T03:40:45.531Z,1215.00
2023-05-05T03:41:46.568Z,1216.00
2023-05-05T03:42:45.537Z,1218.00
2023-05-05T03:43:45.544Z,1217.00
2023-05-05T03:44:45.499Z,1216.00
2023-05-05T03:45:45.519Z,1221.00
2023-05-05T03:46:45.518Z,1213.00
2023-05-05T03:47:45.487Z,1204.00
2023-05-05T03:48:45.472Z,1197.00
2023-05-05T03:49:45.523Z,1212.00
2023-05-05T03:50:45.553Z,1213.00
2023-05-05T03:51:45.624Z,1211.00
2023-05-05T03:52:45.711Z,1229.00
2023-05-05T03:53:45.751Z,1208.00
2023-05-05T03:54:45.794Z,1214.00
2023-05-05T03:55:45.872Z,1212.00
2023-05-05T03:56:45.931Z,1208.00
2023-05-05T03:57:45.989Z,1209.00
2023-05-05T03:58:46.076Z,1218.00
2023-05-05T03:59:46.116Z,1217.00
2023-05-05T04:00:46.124Z,1212.00
2023-05-05T04:01:46.211Z,1207.00
2023-05-05T04:02:46.397Z,1220.00
2023-05-05T04:03:46.373Z,1225.00
2023-05-05T04:04:46.368Z,1218.00
2023-05-05T04:05:46.453Z,1212.00
2023-05-05T04:06:46.501Z,1214.00
2023-05-05T04:07:46.566Z,1214.00
2023-05-05T04:08:46.683Z,1213.00
2023-05-05T04:09:46.665Z,1214.00
2023-05-05T04:10:46.764Z,1215.00
2023-05-05T04:11:46.792Z,1217.00
2023-05-05T04:12:46.863Z,1209.00
2023-05-05T04:13:46.926Z,1220.00
2023-05-05T04:14:46.951Z,1215.00
2023-05-05T04:15:47.053Z,1202.00
2023-05-05T04:16:47.069Z,1214.00
2023-05-05T04:17:47.154Z,1200.00
2023-05-05T04:18:47.185Z,1215.00
2023-05-05T04:19:47.258Z,1230.00
2023-05-05T04:20:47.289Z,1208.00
2023-05-05T04:21:47.379Z,1209.00
2023-05-05T04:22:47.446Z,1212.00
2023-05-05T04:23:47.459Z,1197.00
2023-05-05T04:24:47.541Z,1201.00
2023-05-05T04:25:47.591Z,1219.00
2023-05-05T04:26:47.657Z,1218.00
2023-05-05T04:27:47.694Z,1207.00
2023-05-05T04:28:47.772Z,1219.00
2023-05-05T04:29:47.833Z,1201.00
2023-05-05T04:30:47.883Z,1220.00
2023-05-05T04:31:48.063Z,1211.00
2023-05-05T04:32:48.000Z,1222.00
2023-05-05T04:33:48.084Z,1213.00
2023-05-05T04:34:48.093Z,1202.00
2023-05-05T04:35:48.179Z,1215.00
2023-05-05T04:36:48.239Z,1221.00
2023-05-05T04:37:48.269Z,1214.00
2023-05-05T04:38:48.368Z,1223.00
2023-05-05T04:39:48.418Z,1200.00
2023-05-05T04:40:48.470Z,1207.00
2023-05-05T04:41:48.527Z,1212.00
2023-05-05T04:42:48.580Z,1204.00
2023-05-05T04:43:48.624Z,1217.00
2023-05-05T04:44:48.676Z,1215.00
2023-05-05T04:45:48.740Z,1215.00
2023-05-05T04:46:48.862Z,1208.00
2023-05-05T04:47:48.919Z,1222.00
2023-05-05T04:48:48.912Z,1214.00
2023-05-05T04:49:48.980Z,1209.00
2023-05-05T04:50:49.036Z,1224.00
2023-05-05T04:51:49.093Z,1218.00
2023-05-05T04:52:51.310Z,1221.00
2023-05-05T04:53:49.121Z,1228.00
2023-05-05T04:54:49.120Z,1219.00
2023-05-05T04:55:49.134Z,1216.00
2023-05-05T04:56:49.116Z,1204.00
2023-05-05T04:57:49.097Z,1213.00
2023-05-05T04:58:49.091Z,1209.00
2023-05-05T04:59:49.118Z,1216.00
2023-05-05T05:00:49.077Z,1205.00
2023-05-05T05:01:49.105Z,1201.00
2023-05-05T05:02:49.164Z,1198.00
2023-05-05T05:03:49.111Z,1197.00
2023-05-05T05:04:49.054Z,1194.00
2023-05-05T05:05:49.059Z,1214.00
2023-05-05T05:06:49.086Z,1218.00
2023-05-05T05:07:49.057Z,1207.00
2023-05-05T05:08:49.040Z,1213.00
2023-05-05T05:09:49.036Z,1191.00
2023-05-05T05:10:49.009Z,1199.00
2023-05-05T05:11:49.000Z,1199.00
2023-05-05T05:12:49.015Z,1189.00
2023-05-05T05:13:48.976Z,1203.00
2023-05-05T05:14:48.961Z,1190.00
2023-05-05T05:15:48.990Z,1210.00
2023-05-05T05:16:49.053Z,1191.00
2023-05-05T05:17:48.964Z,1206.00
2023-05-05T05:18:48.925Z,1195.00
2023-05-05T05:19:48.933Z,1189.00
2023-05-05T05:20:48.966Z,1201.00
2023-05-05T05:21:48.921Z,1186.00
2023-05-05T05:22:48.916Z,1202.00
2023-05-05T05:23:48.895Z,1202.00
2023-05-05T05:24:48.932Z,1208.00
2023-05-05T05:25:48.964Z,1190.00
2023-05-05T05:26:49.041Z,1187.00
2023-05-05T05:27:58.541Z,1187.00
2023-05-05T05:28:50.064Z,1188.00
2023-05-05T05:29:49.046Z,1191.00
2023-05-05T05:30:49.082Z,1192.00
2023-05-05T05:31:49.086Z,1190.00
2023-05-05T05:32:49.095Z,1201.00
2023-05-05T05:33:49.047Z,1196.00
2023-05-05T05:34:49.022Z,1204.00
2023-05-05T05:35:49.035Z,1193.00
2023-05-05T05:36:49.082Z,1197.00
2023-05-05T05:37:49.138Z,1187.00
2023-05-05T05:38:49.202Z,1200.00
2023-05-05T05:39:49.255Z,1201.00
2023-05-05T05:40:49.308Z,1187.00
2023-05-05T05:41:49.370Z,1198.00
2023-05-05T05:42:49.440Z,1174.00
2023-05-05T05:43:49.511Z,1206.00
2023-05-05T05:44:49.563Z,1188.00
2023-05-05T05:45:49.631Z,1186.00
2023-05-05T05:46:49.813Z,1190.00
2023-05-05T05:47:49.764Z,1208.00
2023-05-05T05:48:49.805Z,1192.00
2023-05-05T05:49:49.869Z,1193.00
2023-05-05T05:50:49.928Z,1195.00
2023-05-05T05:51:50.401Z,1196.00
2023-05-05T05:52:50.091Z,1200.00
2023-05-05T05:53:50.081Z,1209.00
2023-05-05T05:54:50.181Z,1185.00
2023-05-05T05:55:50.237Z,1191.00
2023-05-05T05:56:50.282Z,1187.00
2023-05-05T05:57:50.343Z,1188.00
2023-05-05T05:58:50.383Z,1190.00
2023-05-05T05:59:50.475Z,1192.00
2023-05-05T06:00:50.557Z,1202.00
2023-05-05T06:01:50.573Z,1199.00
2023-05-05T06:02:50.679Z,1194.00
2023-05-05T06:03:50.847Z,1189.00
2023-05-05T06:04:50.754Z,1186.00
2023-05-05T06:05:50.852Z,1194.00
2023-05-05T06:06:50.981Z,1185.00
2023-05-05T06:07:50.975Z,1189.00
2023-05-05T06:08:51.020Z,1183.00
2023-05-05T06:09:51.097Z,1181.00
2023-05-05T06:10:51.125Z,1179.00
2023-05-05T06:11:51.189Z,1177.00
2023-05-05T06:12:51.298Z,1169.00
2023-05-05T06:13:51.307Z,1168.00
2023-05-05T06:14:51.360Z,1173.00
2023-05-05T06:15:51.493Z,1172.00
2023-05-05T06:16:51.683Z,1173.00
2023-05-05T06:17:51.609Z,1158.00
2023-05-05T06:18:51.643Z,1168.00
2023-05-05T06:19:54.074Z,1155.00
2023-05-05T06:20:51.663Z,1152.00
2023-05-05T06:21:51.725Z,1150.00
2023-05-05T06:22:51.668Z,1151.00
2023-05-05T06:23:51.648Z,1144.00
2023-05-05T06:24:51.655Z,1148.00
2023-05-05T06:25:51.654Z,1135.00
2023-05-05T06:26:51.935Z,1150.00
2023-05-05T06:27:51.649Z,1146.00
2023-05-05T06:28:51.647Z,1133.00
2023-05-05T06:29:51.593Z,1134.00
2023-05-05T06:30:51.623Z,1135.00
2023-05-05T06:31:51.635Z,1132.00
2023-05-05T06:32:51.608Z,1121.00
2023-05-05T06:33:51.600Z,1140.00
2023-05-05T06:34:51.581Z,1125.00
2023-05-05T06:35:51.569Z,1131.00
2023-05-05T06:36:51.990Z,1113.00
2023-05-05T06:37:51.577Z,1125.00
2023-05-05T06:38:51.560Z,1113.00
2023-05-05T06:39:51.542Z,1115.00
2023-05-05T06:40:51.547Z,1098.00
2023-05-05T06:41:51.530Z,1116.00
2023-05-05T06:42:51.547Z,1105.00
2023-05-05T06:43:51.519Z,1097.00
2023-05-05T06:44:51.510Z,1097.00
2023-05-05T06:45:51.496Z,1095.00
2023-05-05T06:46:51.963Z,1106.00
2023-05-05T06:47:51.535Z,1116.00
2023-05-05T06:48:51.483Z,1097.00
2023-05-05T06:49:51.496Z,1095.00
2023-05-05T06:50:51.520Z,1097.00
2023-05-05T06:51:51.469Z,1078.00
2023-05-05T06:52:51.448Z,1089.00
2023-05-05T06:53:51.456Z,1105.00
2023-05-05T06:54:51.456Z,1116.00
2023-05-05T06:55:51.444Z,1111.00
2023-05-05T06:56:51.522Z,1102.00
2023-05-05T06:57:51.557Z,1114.00
2023-05-05T06:58:51.728Z,1117.00
2023-05-05T06:59:51.681Z,1122.00
2023-05-05T07:00:51.747Z,1109.00
2023-05-05T07:01:51.812Z,1127.00
2023-05-05T07:02:51.916Z,1119.00
2023-05-05T07:03:51.994Z,1113.00
2023-05-05T07:04:52.004Z,1114.00
2023-05-05T07:05:52.088Z,1118.00
2023-05-05T07:06:52.436Z,1132.00
2023-05-05T07:07:52.178Z,1124.00
2023-05-05T07:08:52.241Z,1140.00
2023-05-05T07:09:52.320Z,1142.00
2023-05-05T07:10:52.343Z,1144.00
2023-05-05T07:11:52.431Z,1141.00
2023-05-05T07:12:52.594Z,1137.00
2023-05-05T07:13:52.544Z,1142.00
2023-05-05T07:14:52.826Z,1141.00
2023-05-05T07:15:52.694Z,1145.00
2023-05-05T07:16:52.814Z,1160.00
2023-05-05T07:17:52.947Z,1141.00
2023-05-05T07:18:53.017Z,1139.00
2023-05-05T07:19:52.971Z,1150.00
2023-05-05T07:20:52.996Z,1160.00
2023-05-05T07:21:53.039Z,1159.00
2023-05-05T07:22:53.089Z,1186.00
2023-05-05T07:23:53.164Z,1218.00
2023-05-05T07:24:53.244Z,1237.00
2023-05-05T07:25:53.255Z,1245.00
2023-05-05T07:26:53.336Z,1257.00
2023-05-05T07:27:53.396Z,1281.00
2023-05-05T07:28:53.415Z,1287.00
2023-05-05T07:29:53.470Z,1308.00
2023-05-05T07:30:53.584Z,1318.00
2023-05-05T07:31:53.560Z,1334.00
2023-05-05T07:32:53.635Z,1349.00
2023-05-05T07:33:53.659Z,1377.00
2023-05-05T07:34:53.640Z,1370.00
2023-05-05T07:35:53.702Z,1402.00
2023-05-05T07:36:53.696Z,1425.00
2023-05-05T07:37:53.735Z,1462.00
2023-05-05T07:38:53.758Z,1475.00
2023-05-05T07:39:53.784Z,1492.00
2023-05-05T07:40:53.803Z,1527.00
2023-05-05T07:41:53.941Z,1520.00
2023-05-05T07:42:53.888Z,1569.00
2023-05-05T07:43:53.848Z,1581.00
2023-05-05T07:44:53.878Z,1597.00
2023-05-05T07:45:53.912Z,1604.00
2023-05-05T07:46:54.041Z,1610.00
2023-05-05T07:47:53.965Z,1652.00
2023-05-05T07:48:54.025Z,1656.00
2023-05-05T07:49:53.895Z,1676.00
2023-05-05T07:50:53.896Z,1685.00
2023-05-05T07:51:53.928Z,1706.00
2023-05-05T07:52:59.373Z,1708.00
2023-05-05T07:53:54.953Z,1710.00
2023-05-05T07:54:54.065Z,1718.00
2023-05-05T07:55:53.901Z,1739.00
2023-05-05T07:56:53.883Z,1763.00
2023-05-05T07:57:53.871Z,1815.00
2023-05-05T07:58:53.845Z,1837.00
2023-05-05T07:59:53.866Z,1854.00
2023-05-05T08:00:53.853Z,1879.00
2023-05-05T08:01:55.021Z,1892.00
2023-05-05T08:02:54.189Z,1902.00
2023-05-05T08:03:54.150Z,1911.00
2023-05-05T08:04:53.836Z,1930.00
2023-05-05T08:05:53.845Z,1946.00
2023-05-05T08:06:53.814Z,1972.00
2023-05-05T08:07:53.834Z,1973.00
2023-05-05T08:08:53.833Z,1997.00
2023-05-05T08:09:53.816Z,2021.00
2023-05-05T08:10:53.781Z,2029.00
2023-05-05T08:11:53.803Z,2037.00
2023-05-05T08:12:53.774Z,2052.00
2023-05-05T08:13:53.750Z,2061.00
2023-05-05T08:14:53.775Z,2062.00
2023-05-05T08:15:53.778Z,2084.00
2023-05-05T08:16:53.731Z,2074.00
2023-05-05T08:17:53.782Z,2103.00
2023-05-05T08:18:53.889Z,2096.00
2023-05-05T08:19:53.772Z,2119.00
2023-05-05T08:20:53.716Z,2138.00
2023-05-05T08:21:53.708Z,2157.00
2023-05-05T08:22:53.725Z,2207.00
2023-05-05T08:23:53.714Z,2198.00
2023-05-05T08:24:53.715Z,2197.00
2023-05-05T08:25:53.717Z,2211.00
2023-05-05T08:26:53.736Z,2140.00
2023-05-05T08:27:53.694Z,2190.00
2023-05-05T08:28:53.671Z,2184.00
2023-05-05T08:29:53.655Z,2136.00
2023-05-05T08:30:53.657Z,2126.00
2023-05-05T08:31:53.748Z,1816.00
2023-05-05T08:32:53.687Z,1888.00
2023-05-05T08:33:53.636Z,1684.00
2023-05-05T08:34:53.679Z,1335.00
2023-05-05T08:35:53.649Z,1117.00
2023-05-05T08:36:53.641Z,1051.00
2023-05-05T08:37:54.950Z,986.00
2023-05-05T08:38:53.652Z,937.00
2023-05-05T08:39:53.726Z,738.00
2023-05-05T08:40:53.812Z,660.00
2023-05-05T08:41:53.855Z,627.00
2023-05-05T08:42:53.891Z,561.00
2023-05-05T08:43:53.911Z,525.00
2023-05-05T08:44:53.910Z,498.00
2023-05-05T08:45:53.940Z,500.00
2023-05-05T08:46:53.949Z,503.00
2023-05-05T08:47:53.990Z,496.00
2023-05-05T08:48:53.921Z,502.00
2023-05-05T08:49:53.967Z,505.00
2023-05-05T08:50:54.005Z,527.00
2023-05-05T08:51:53.958Z,554.00
2023-05-05T08:52:54.002Z,538.00
2023-05-05T08:53:53.994Z,542.00
2023-05-05T08:54:54.010Z,586.00
2023-05-05T08:55:53.989Z,588.00
2023-05-05T08:56:53.983Z,526.00
2023-05-05T08:57:53.971Z,515.00
2023-05-05T08:58:53.973Z,510.00
2023-05-05T08:59:53.988Z,518.00
2023-05-05T09:00:54.031Z,500.00
2023-05-05T09:01:54.015Z,529.00
2023-05-05T09:02:54.095Z,553.00
2023-05-05T09:03:54.002Z,604.00
2023-05-05T09:04:54.001Z,623.00
2023-05-05T09:05:54.011Z,648.00
2023-05-05T09:06:54.267Z,604.00
2023-05-05T09:07:54.491Z,518.00
2023-05-05T09:08:54.117Z,508.00
2023-05-05T09:09:54.129Z,503.00
2023-05-05T09:10:54.140Z,520.00
2023-05-05T09:11:54.104Z,532.00
2023-05-05T09:12:54.132Z,568.00
2023-05-05T09:13:54.141Z,610.00
2023-05-05T09:14:54.145Z,610.00
2023-05-05T09:15:54.183Z,625.00
2023-05-05T09:16:54.241Z,595.00
2023-05-05T09:17:54.282Z,537.00
2023-05-05T09:18:54.319Z,506.00
2023-05-05T09:19:54.326Z,540.00
2023-05-05T09:20:54.406Z,557.00
2023-05-05T09:21:54.429Z,576.00
2023-05-05T09:22:54.525Z,611.00
2023-05-05T09:23:55.079Z,621.00
2023-05-05T09:24:54.552Z,616.00
2023-05-05T09:25:54.638Z,626.00
2023-05-05T09:26:54.648Z,635.00
2023-05-05T09:27:55.045Z,632.00
2023-05-05T09:28:54.799Z,640.00
2023-05-05T09:29:54.858Z,646.00
2023-05-05T09:30:54.961Z,652.00
2023-05-05T09:31:55.021Z,651.00
2023-05-05T09:32:55.106Z,656.00
2023-05-05T09:33:55.129Z,653.00
2023-05-05T09:34:55.178Z,650.00
2023-05-05T09:35:55.240Z,645.00
2023-05-05T09:36:55.314Z,638.00
2023-05-05T09:37:55.420Z,569.00
2023-05-05T09:38:56.351Z,538.00
2023-05-05T09:39:55.490Z,595.00
2023-05-05T09:40:55.546Z,624.00
2023-05-05T09:41:55.614Z,601.00
2023-05-05T09:42:55.995Z,587.00
2023-05-05T09:43:55.689Z,626.00
2023-05-05T09:44:57.856Z,654.00
2023-05-05T09:45:55.774Z,602.00
2023-05-05T09:46:55.732Z,580.00
2023-05-05T09:47:59.536Z,618.00
2023-05-05T09:48:55.752Z,620.00
2023-05-05T09:49:55.712Z,630.00
2023-05-05T09:50:55.753Z,655.00
2023-05-05T09:51:55.723Z,731.00
2023-05-05T09:52:55.701Z,865.00
2023-05-05T09:53:55.724Z,938.00
2023-05-05T09:54:55.767Z,966.00
2023-05-05T09:55:55.674Z,1001.00
2023-05-05T09:56:55.672Z,1044.00
2023-05-05T09:57:56.096Z,1079.00
2023-05-05T09:58:57.081Z,1123.00
2023-05-05T09:59:56.505Z,1156.00
2023-05-05T10:00:55.635Z,1199.00
2023-05-05T10:01:55.665Z,1234.00
2023-05-05T10:02:55.667Z,1271.00
2023-05-05T10:03:55.619Z,1294.00
2023-05-05T10:04:55.647Z,1316.00
2023-05-05T10:05:55.697Z,1331.00
2023-05-05T10:06:55.624Z,1361.00
2023-05-05T10:07:55.582Z,1371.00
2023-05-05T10:08:55.598Z,1372.00
2023-05-05T10:09:55.555Z,1421.00
2023-05-05T10:10:55.661Z,1430.00
2023-05-05T10:11:55.567Z,1430.00
2023-05-05T10:12:55.605Z,1433.00
2023-05-05T10:13:55.561Z,1449.00
2023-05-05T10:14:55.568Z,1456.00
2023-05-05T10:15:55.587Z,1477.00
2023-05-05T10:16:55.534Z,1488.00
2023-05-05T10:18:06.192Z,1496.00
2023-05-05T10:18:56.530Z,1498.00
2023-05-05T10:19:55.518Z,1500.00
2023-05-05T10:20:55.483Z,1508.00
2023-05-05T10:21:55.490Z,1522.00
2023-05-05T10:22:55.488Z,1542.00
2023-05-05T10:23:55.465Z,1558.00
2023-05-05T10:24:55.462Z,1581.00
2023-05-05T10:25:55.483Z,1569.00
2023-05-05T10:26:55.537Z,1580.00
2023-05-05T10:27:55.457Z,1594.00
2023-05-05T10:28:55.442Z,1597.00
2023-05-05T10:29:55.485Z,1609.00
2023-05-05T10:30:55.482Z,1662.00
2023-05-05T10:31:55.573Z,1697.00
2023-05-05T10:33:07.981Z,1737.00
2023-05-05T10:33:56.649Z,1739.00
2023-05-05T10:34:55.535Z,1745.00
2023-05-05T10:35:55.582Z,1753.00
2023-05-05T10:36:55.539Z,1779.00
2023-05-05T10:37:55.523Z,1809.00
2023-05-05T10:38:55.536Z,1818.00
2023-05-05T10:39:55.532Z,1844.00
2023-05-05T10:40:55.501Z,1877.00
2023-05-05T10:41:55.506Z,1920.00
2023-05-05T10:42:55.648Z,1957.00
2023-05-05T10:43:55.501Z,1993.00
2023-05-05T10:44:55.533Z,2038.00
2023-05-05T10:45:55.637Z,2062.00
2023-05-05T10:46:55.470Z,2091.00
2023-05-05T10:47:55.483Z,2094.00
2023-05-05T10:48:55.493Z,2127.00
2023-05-05T10:49:55.456Z,2183.00
2023-05-05T10:50:55.412Z,2162.00
2023-05-05T10:51:55.424Z,2180.00
2023-05-05T10:52:55.423Z,2193.00
2023-05-05T10:53:55.418Z,2218.00
2023-05-05T10:54:55.406Z,2233.00
2023-05-05T10:55:55.381Z,2258.00
2023-05-05T10:56:55.379Z,2276.00
2023-05-05T10:57:55.395Z,2311.00
2023-05-05T10:59:00.009Z,2339.00
2023-05-05T10:59:56.414Z,2340.00
2023-05-05T11:00:55.420Z,2347.00
2023-05-05T11:01:55.537Z,2359.00
2023-05-05T11:02:55.379Z,2388.00
2023-05-05T11:03:55.358Z,2446.00
2023-05-05T11:04:55.325Z,2469.00
2023-05-05T11:05:55.325Z,2479.00
2023-05-05T11:06:55.347Z,2500.00
2023-05-05T11:07:55.333Z,2524.00
2023-05-05T11:08:55.314Z,2535.00
2023-05-05T11:09:55.301Z,2557.00
2023-05-05T11:10:55.312Z,2557.00
2023-05-05T11:11:55.281Z,2573.00
2023-05-05T11:12:55.340Z,2588.00
2023-05-05T11:13:55.314Z,2595.00
2023-05-05T11:14:55.393Z,2597.00
2023-05-05T11:15:55.297Z,2619.00
2023-05-05T11:16:55.325Z,2645.00
2023-05-05T11:17:55.410Z,2665.00
2023-05-05T11:18:55.344Z,2679.00
2023-05-05T11:19:55.380Z,2694.00
2023-05-05T11:20:55.415Z,2695.00
2023-05-05T11:21:55.454Z,2693.00
2023-05-05T11:22:55.493Z,2704.00
2023-05-05T11:23:55.486Z,2703.00
2023-05-05T11:24:55.508Z,2731.00
2023-05-05T11:25:55.506Z,2747.00
2023-05-05T11:26:55.578Z,2745.00
2023-05-05T11:27:56.049Z,2782.00
2023-05-05T11:28:55.644Z,2781.00
2023-05-05T11:29:55.647Z,2790.00
2023-05-05T11:30:56.147Z,2767.00
2023-05-05T11:31:55.749Z,2805.00
2023-05-05T11:32:55.825Z,2795.00
2023-05-05T11:33:56.060Z,2787.00
2023-05-05T11:34:55.793Z,2800.00
2023-05-05T11:35:55.831Z,2807.00
2023-05-05T11:36:55.820Z,2793.00
2023-05-05T11:37:55.858Z,2799.00
2023-05-05T11:38:55.931Z,2797.00
2023-05-05T11:39:55.888Z,2813.00
2023-05-05T11:40:55.898Z,2809.00
2023-05-05T11:41:55.898Z,2816.00
2023-05-05T11:42:55.922Z,2806.00
2023-05-05T11:43:55.908Z,2813.00
2023-05-05T11:44:55.942Z,2801.00
2023-05-05T11:45:55.977Z,2791.00
2023-05-05T11:46:56.038Z,2786.00
2023-05-05T11:47:56.040Z,2777.00
2023-05-05T11:48:56.010Z,2764.00
2023-05-05T11:49:56.008Z,2759.00
2023-05-05T11:50:56.039Z,2752.00
2023-05-05T11:51:56.039Z,2752.00
2023-05-05T11:52:56.049Z,2736.00
2023-05-05T11:53:58.466Z,2739.00
2023-05-05T11:54:56.054Z,2737.00
2023-05-05T11:55:56.020Z,2719.00
2023-05-05T11:56:56.018Z,2704.00
2023-05-05T11:57:55.992Z,2707.00
2023-05-05T11:58:56.009Z,2705.00
2023-05-05T11:59:56.008Z,2696.00
2023-05-05T12:00:56.010Z,2686.00
2023-05-05T12:01:55.970Z,2688.00
2023-05-05T12:02:56.137Z,2684.00
2023-05-05T12:03:56.124Z,2679.00
2023-05-05T12:04:56.133Z,2684.00
2023-05-05T12:05:55.960Z,2684.00
2023-05-05T12:06:55.938Z,2669.00
2023-05-05T12:07:55.951Z,2670.00
2023-05-05T12:08:55.915Z,2669.00